createdAt,value
2022-09-06T00:01:19.623Z,97
2022-09-06T00:03:44.721Z,97.1
2022-09-06T00:06:10.822Z,97.4
2022-09-06T00:08:36.916Z,97.4
2022-09-06T00:11:03.020Z,97.2
2022-09-06T00:13:29.117Z,97.1
2022-09-06T00:15:55.210Z,97.1
2022-09-06T00:18:21.303Z,97.2
2022-09-06T00:20:47.421Z,97.2
2022-09-06T00:23:13.491Z,97.3
2022-09-06T00:25:39.593Z,97.3
2022-09-06T00:28:05.680Z,97.5
2022-09-06T00:30:31.771Z,97.8
2022-09-06T00:32:57.862Z,98.1
2022-09-06T00:35:23.241Z,98.3
2022-09-06T00:37:49.092Z,98.3
2022-09-06T00:40:15.181Z,98.4
2022-09-06T00:42:41.282Z,98.4
2022-09-06T00:45:07.368Z,98.3
2022-09-06T00:47:33.493Z,98.5
2022-09-06T00:49:59.552Z,98.2
2022-09-06T00:52:25.642Z,98.3
2022-09-06T00:54:51.763Z,98
2022-09-06T00:57:17.847Z,98
2022-09-06T00:59:43.937Z,97.9
2022-09-06T01:02:10.040Z,97.8
2022-09-06T01:04:36.132Z,98.1
2022-09-06T01:07:01.237Z,98.3
2022-09-06T01:09:27.327Z,98.3
2022-09-06T01:11:53.444Z,98.3
2022-09-06T01:14:19.541Z,98.3
2022-09-06T01:16:45.625Z,98.2
2022-09-06T01:19:11.716Z,98.4
2022-09-06T01:21:37.842Z,99
2022-09-06T01:24:03.927Z,99
2022-09-06T01:26:30.011Z,99
2022-09-06T01:28:56.108Z,99
2022-09-06T01:31:22.204Z,99
2022-09-06T01:33:48.296Z,99.2
2022-09-06T01:36:14.383Z,99.5
2022-09-06T01:38:39.482Z,99.5
2022-09-06T01:41:05.587Z,99.5
2022-09-06T01:43:31.679Z,99.5
2022-09-06T01:45:57.786Z,99.7
2022-09-06T01:48:23.874Z,100
2022-09-06T01:50:49.975Z,100
2022-09-06T01:53:16.063Z,100
2022-09-06T01:55:42.153Z,100
2022-09-06T01:58:08.244Z,100
2022-09-06T02:00:34.363Z,100
2022-09-06T02:03:00.441Z,100
2022-09-06T02:05:26.535Z,100
2022-09-06T02:07:52.634Z,100
2022-09-06T02:10:17.744Z,100
2022-09-06T02:12:43.834Z,100
2022-09-06T02:15:09.930Z,100
2022-09-06T02:17:36.027Z,100
2022-09-06T02:20:02.123Z,100
2022-09-06T02:22:28.204Z,100
2022-09-06T02:24:54.301Z,100
2022-09-06T02:27:20.399Z,100
2022-09-06T02:29:46.500Z,100
2022-09-06T02:32:12.600Z,100
2022-09-06T02:34:38.689Z,100
2022-09-06T02:37:04.782Z,100
2022-09-06T02:39:30.868Z,100
2022-09-06T02:41:55.985Z,100
2022-09-06T02:44:22.085Z,100
2022-09-06T02:46:48.172Z,99.8
2022-09-06T02:49:14.291Z,99.5
2022-09-06T02:51:40.373Z,99.4
2022-09-06T02:54:06.455Z,99
2022-09-06T02:56:32.566Z,98.8
2022-09-06T02:58:58.660Z,98.8
2022-09-06T03:01:24.741Z,98.8
2022-09-06T03:03:50.842Z,98.8
2022-09-06T03:06:16.937Z,98.8
2022-09-06T03:08:43.043Z,98.5
2022-09-06T03:11:09.138Z,98.4
2022-09-06T03:13:34.249Z,98.5
2022-09-06T03:16:00.341Z,98.9
2022-09-06T03:18:26.437Z,99.7
2022-09-06T03:20:52.534Z,100
2022-09-06T03:23:18.623Z,100
2022-09-06T03:25:44.715Z,100
2022-09-06T03:28:10.809Z,100
2022-09-06T03:30:36.912Z,100
2022-09-06T03:33:03.004Z,100
2022-09-06T03:35:29.095Z,100
2022-09-06T03:37:55.196Z,100
2022-09-06T03:40:21.296Z,100
2022-09-06T03:42:47.389Z,100
2022-09-06T03:45:12.483Z,100
2022-09-06T03:47:38.627Z,100
2022-09-06T03:50:04.678Z,100
2022-09-06T03:52:30.789Z,100
2022-09-06T03:54:56.885Z,100
2022-09-06T03:57:22.971Z,100
2022-09-06T04:02:15.188Z,100
2022-09-06T04:04:41.264Z,100
2022-09-06T04:07:07.344Z,100
2022-09-06T04:09:33.441Z,100
2022-09-06T04:11:59.542Z,100
2022-09-06T04:14:25.640Z,100
2022-09-06T04:16:50.748Z,100
2022-09-06T04:19:16.852Z,100
2022-09-06T04:21:42.942Z,100
2022-09-06T04:24:09.037Z,100
2022-09-06T04:26:35.127Z,100
2022-09-06T04:29:01.232Z,100
2022-09-06T04:31:27.315Z,100
2022-09-06T04:33:53.423Z,100
2022-09-06T04:36:19.513Z,100
2022-09-06T04:38:45.601Z,100
2022-09-06T04:41:11.711Z,100
2022-09-06T04:43:37.820Z,100
2022-09-06T04:46:03.896Z,100
2022-09-06T04:48:28.990Z,100
2022-09-06T04:50:55.120Z,100
2022-09-06T04:53:21.191Z,100
2022-09-06T04:55:47.281Z,100
2022-09-06T04:58:13.380Z,100
2022-09-06T05:00:39.483Z,100
2022-09-06T05:03:05.571Z,100
2022-09-06T05:05:31.674Z,100
2022-09-06T05:07:57.756Z,100
2022-09-06T05:10:23.867Z,100
2022-09-06T05:12:49.965Z,100
2022-09-06T05:15:16.040Z,100
2022-09-06T05:17:42.147Z,100
2022-09-06T05:20:07.251Z,100
2022-09-06T05:22:33.344Z,100
2022-09-06T05:24:59.443Z,100
2022-09-06T05:27:25.541Z,100
2022-09-06T05:29:51.645Z,100
2022-09-06T05:32:17.738Z,100
2022-09-06T05:34:43.836Z,100
2022-09-06T05:37:09.929Z,100
2022-09-06T05:39:36.024Z,100
2022-09-06T05:42:02.123Z,100
2022-09-06T05:44:28.207Z,100
2022-09-06T05:46:54.291Z,100
2022-09-06T05:49:20.429Z,100
2022-09-06T05:51:45.512Z,100
2022-09-06T05:54:11.610Z,100
2022-09-06T05:56:37.705Z,100
2022-09-06T05:59:03.803Z,100
2022-09-06T06:01:29.903Z,100
2022-09-06T06:03:55.997Z,100
2022-09-06T06:06:22.090Z,100
2022-09-06T06:08:48.181Z,100
2022-09-06T06:11:14.278Z,100
2022-09-06T06:13:40.372Z,100
2022-09-06T06:16:06.474Z,100
2022-09-06T06:18:32.573Z,100
2022-09-06T06:20:58.661Z,100
2022-09-06T06:23:23.781Z,100
2022-09-06T06:25:49.863Z,100
2022-09-06T06:28:15.970Z,100
2022-09-06T06:30:42.064Z,100
2022-09-06T06:33:08.144Z,100
2022-09-06T06:35:34.249Z,100
2022-09-06T06:38:00.357Z,100
2022-09-06T06:40:26.435Z,100
2022-09-06T06:42:52.535Z,100
2022-09-06T06:45:18.622Z,100
2022-09-06T06:47:44.709Z,100
2022-09-06T06:50:10.812Z,100
2022-09-06T06:52:36.914Z,100
2022-09-06T06:55:02.032Z,100
2022-09-06T06:57:28.119Z,100
2022-09-06T06:59:54.225Z,100
2022-09-06T07:02:20.306Z,100
2022-09-06T07:04:46.428Z,100
2022-09-06T07:07:11.516Z,100
2022-09-06T07:09:37.604Z,100
2022-09-06T07:12:03.708Z,100
2022-09-06T07:14:29.793Z,100
2022-09-06T07:16:55.895Z,100
2022-09-06T07:19:21.990Z,100
2022-09-06T07:21:48.094Z,100
2022-09-06T07:24:14.189Z,100
2022-09-06T07:26:40.279Z,99.6
2022-09-06T07:29:06.367Z,98.7
2022-09-06T07:31:32.471Z,97.8
2022-09-06T07:33:58.573Z,96.7
2022-09-06T07:36:24.656Z,94.8
2022-09-06T07:38:49.776Z,94.1
2022-09-06T07:41:15.867Z,93.7
2022-09-06T07:43:41.968Z,94.3
2022-09-06T07:46:08.043Z,94.5
2022-09-06T07:48:34.149Z,93.4
2022-09-06T07:51:00.250Z,94.1
2022-09-06T07:53:26.330Z,95.2
2022-09-06T07:55:52.431Z,94.7
2022-09-06T07:58:18.526Z,92.1
2022-09-06T08:00:44.622Z,91.7
2022-09-06T08:03:10.715Z,91.4
2022-09-06T08:05:36.811Z,90.8
2022-09-06T08:08:02.961Z,90.4
2022-09-06T08:10:28.019Z,90.4
2022-09-06T08:15:20.219Z,89.5
2022-09-06T08:17:46.309Z,91.2
2022-09-06T08:20:12.417Z,89.8
2022-09-06T08:22:38.506Z,90.1
2022-09-06T08:25:04.613Z,89.6
2022-09-06T08:27:30.701Z,89.6
2022-09-06T08:29:56.789Z,89.6
2022-09-06T08:32:22.946Z,89.1
2022-09-06T08:34:48.987Z,89
2022-09-06T08:37:15.096Z,88.5
2022-09-06T08:39:41.182Z,87.3
2022-09-06T08:42:06.278Z,86.8
2022-09-06T08:44:32.380Z,86.5
2022-09-06T08:46:58.484Z,86.1
2022-09-06T08:49:24.564Z,86.1
2022-09-06T08:51:50.671Z,84.8
2022-09-06T08:54:16.761Z,84.9
2022-09-06T08:56:42.869Z,84.1
2022-09-06T08:59:08.969Z,84.6
2022-09-06T09:01:35.042Z,84.3
2022-09-06T09:04:01.150Z,83
2022-09-06T09:06:27.238Z,83.7
2022-09-06T09:08:53.337Z,79.8
2022-09-06T09:11:19.451Z,80.2
2022-09-06T09:13:44.540Z,80.1
2022-09-06T09:16:10.629Z,79
2022-09-06T09:18:36.721Z,77.7
2022-09-06T09:21:02.822Z,76.4
2022-09-06T09:23:28.908Z,75.1
2022-09-06T09:25:55.027Z,74.7
2022-09-06T09:28:21.109Z,74.8
2022-09-06T09:30:47.199Z,75.4
2022-09-06T09:33:13.295Z,75.3
2022-09-06T09:35:39.390Z,75.4
2022-09-06T09:38:05.491Z,74
2022-09-06T09:40:31.609Z,74.1
2022-09-06T09:42:57.678Z,72.3
2022-09-06T09:45:22.787Z,72.8
2022-09-06T09:47:48.887Z,71.5
2022-09-06T09:50:14.980Z,71.6
2022-09-06T09:52:41.073Z,70.7
2022-09-06T09:55:07.184Z,70.3
2022-09-06T09:57:33.262Z,70.9
2022-09-06T09:59:59.381Z,71.7
2022-09-06T10:02:25.464Z,68.9
2022-09-06T10:04:51.551Z,68.8
2022-09-06T10:07:17.661Z,68.2
2022-09-06T10:09:43.746Z,67.2
2022-09-06T10:12:09.845Z,67.3
2022-09-06T10:14:35.943Z,67.8
2022-09-06T10:17:01.028Z,67.1
2022-09-06T10:19:27.144Z,66.5
2022-09-06T10:21:53.241Z,66.5
2022-09-06T10:24:19.334Z,66.6
2022-09-06T10:26:45.419Z,66.6
2022-09-06T10:29:11.522Z,66.1
2022-09-06T10:31:37.621Z,66.7
2022-09-06T10:36:29.794Z,66.9
2022-09-06T10:38:55.918Z,67.7
2022-09-06T10:41:21.988Z,66.8
2022-09-06T10:43:48.087Z,67.5
2022-09-06T10:46:14.221Z,66.6
2022-09-06T10:48:39.336Z,65.6
2022-09-06T10:51:05.383Z,64.9
2022-09-06T10:53:31.491Z,63.9
2022-09-06T10:55:57.577Z,64.4
2022-09-06T10:58:23.677Z,63.6
2022-09-06T11:00:49.765Z,63.9
2022-09-06T11:03:15.863Z,63.2
2022-09-06T11:05:41.964Z,65.1
2022-09-06T11:08:08.043Z,64.3
2022-09-06T11:10:34.184Z,62.5
2022-09-06T11:13:00.239Z,63.4
2022-09-06T11:15:26.366Z,63.1
2022-09-06T11:17:52.432Z,63.8
2022-09-06T11:20:17.542Z,63.1
2022-09-06T11:22:43.648Z,64.4
2022-09-06T11:25:09.734Z,64.1
2022-09-06T11:27:35.837Z,64.5
2022-09-06T11:30:01.936Z,63.9
2022-09-06T11:32:28.011Z,65.6
2022-09-06T11:34:54.114Z,65.4
2022-09-06T11:37:20.201Z,65
2022-09-06T11:39:46.314Z,65.4
2022-09-06T11:42:12.404Z,64
2022-09-06T11:44:38.498Z,64
2022-09-06T11:47:04.602Z,64.5
2022-09-06T11:51:56.794Z,64.7
2022-09-06T11:54:21.887Z,62.9
2022-09-06T11:56:47.990Z,63.5
2022-09-06T11:59:14.079Z,63.1
2022-09-06T12:01:40.184Z,63.1
2022-09-06T12:04:06.285Z,62.8
2022-09-06T12:06:32.364Z,63.1
2022-09-06T12:08:58.459Z,61.7
2022-09-06T12:11:24.566Z,63.3
2022-09-06T12:13:50.645Z,63
2022-09-06T12:16:16.750Z,62
2022-09-06T12:18:42.838Z,63
2022-09-06T12:21:08.966Z,62.2
2022-09-06T12:23:35.028Z,59.8
2022-09-06T12:26:00.139Z,59.7
2022-09-06T12:28:26.229Z,60.1
2022-09-06T12:30:52.352Z,59.9
2022-09-06T12:33:18.422Z,60.3
2022-09-06T12:35:44.512Z,59.4
2022-09-06T12:38:10.620Z,58.9
2022-09-06T12:40:36.713Z,58.3
2022-09-06T12:43:02.805Z,58.2
2022-09-06T12:45:28.899Z,59
2022-09-06T12:47:54.994Z,58.4
2022-09-06T12:50:21.093Z,59.8
2022-09-06T12:52:47.199Z,58.3
2022-09-06T12:55:13.301Z,60.3
2022-09-06T12:57:38.426Z,60.4
2022-09-06T13:00:04.486Z,59.9
2022-09-06T13:02:30.579Z,59.6
2022-09-06T13:04:56.684Z,62.5
2022-09-06T13:07:22.779Z,63.9
2022-09-06T13:09:48.878Z,66.1
2022-09-06T13:12:14.983Z,66.2
2022-09-06T13:14:41.059Z,65.8
2022-09-06T13:17:07.162Z,65.9
2022-09-06T13:19:33.263Z,66.2
2022-09-06T13:21:59.355Z,64.3
2022-09-06T13:24:25.437Z,63.5
2022-09-06T13:26:51.533Z,63.2
2022-09-06T13:29:16.653Z,63.8
2022-09-06T13:31:42.749Z,62.7
2022-09-06T13:34:08.853Z,62.3
2022-09-06T13:36:34.931Z,62.7
2022-09-06T13:39:01.027Z,62.3
2022-09-06T13:41:27.148Z,62.3
2022-09-06T13:43:53.227Z,64.7
2022-09-06T13:46:19.321Z,65.8
2022-09-06T13:48:45.427Z,64.5
2022-09-06T13:51:11.519Z,63.2
2022-09-06T13:53:37.607Z,63.4
2022-09-06T13:56:03.702Z,63.1
2022-09-06T13:58:29.808Z,64.4
2022-09-06T14:00:54.904Z,63
2022-09-06T14:03:21.015Z,63.8
2022-09-06T14:05:47.106Z,62.6
2022-09-06T14:08:13.214Z,62.6
2022-09-06T14:10:39.306Z,63.1
2022-09-06T14:13:05.385Z,63.3
2022-09-06T14:15:31.500Z,63
2022-09-06T14:17:57.590Z,63.7
2022-09-06T14:20:23.670Z,65.4
2022-09-06T14:22:49.777Z,67.2
2022-09-06T14:25:15.867Z,63.9
2022-09-06T14:27:41.978Z,64.8
2022-09-06T14:30:08.060Z,63.8
2022-09-06T14:32:33.178Z,61.6
2022-09-06T14:34:59.279Z,62
2022-09-06T14:37:25.356Z,62.8
2022-09-06T14:39:51.464Z,62.1
2022-09-06T14:42:17.563Z,61.3
2022-09-06T14:44:43.646Z,61.7
2022-09-06T14:47:09.813Z,64
2022-09-06T14:49:35.846Z,63.6
2022-09-06T14:52:01.935Z,64.5
2022-09-06T14:54:28.028Z,65.3
2022-09-06T14:56:54.134Z,64.4
2022-09-06T14:59:20.220Z,66.3
2022-09-06T15:01:46.320Z,67
2022-09-06T15:04:11.437Z,68.9
2022-09-06T15:06:37.532Z,70
2022-09-06T15:09:03.639Z,71.6
2022-09-06T15:11:29.719Z,70.6
2022-09-06T15:13:55.831Z,71.4
2022-09-06T15:16:20.932Z,72.3
2022-09-06T15:18:47.046Z,72.3
2022-09-06T15:21:13.121Z,73.4
2022-09-06T15:23:39.214Z,73.1
2022-09-06T15:26:05.318Z,73
2022-09-06T15:28:31.406Z,73.1
2022-09-06T15:30:57.511Z,72.4
2022-09-06T15:33:23.615Z,70.3
2022-09-06T15:35:49.692Z,68.1
2022-09-06T15:38:15.789Z,66.3
2022-09-06T15:40:41.887Z,61.7
2022-09-06T15:43:08.007Z,61.1
2022-09-06T15:45:34.078Z,59.6
2022-09-06T15:47:59.209Z,56.9
2022-09-06T15:50:25.297Z,56.1
2022-09-06T15:52:51.391Z,54.5
2022-09-06T15:55:17.481Z,56.5
2022-09-06T15:57:43.580Z,58.9
2022-09-06T16:00:09.662Z,58
2022-09-06T16:02:35.783Z,54.5
2022-09-06T16:05:01.858Z,55.9
2022-09-06T16:07:27.964Z,57.4
2022-09-06T16:09:54.056Z,58.4
2022-09-06T16:12:20.160Z,59.2
2022-09-06T16:14:46.257Z,59.8
2022-09-06T16:17:12.344Z,62.6
2022-09-06T16:19:37.463Z,63.3
2022-09-06T16:22:03.554Z,63.8
2022-09-06T16:24:29.642Z,64.5
2022-09-06T16:26:55.743Z,65.3
2022-09-06T16:29:21.830Z,66.2
2022-09-06T16:31:47.935Z,66.3
2022-09-06T16:34:14.030Z,67.4
2022-09-06T16:36:40.128Z,66.3
2022-09-06T16:39:06.219Z,66.5
2022-09-06T16:41:32.320Z,65.4
2022-09-06T16:43:58.423Z,67.9
2022-09-06T16:46:24.513Z,69
2022-09-06T16:48:50.609Z,69.8
2022-09-06T16:51:15.725Z,69
2022-09-06T16:53:41.820Z,67.6
2022-09-06T16:56:07.912Z,68.2
2022-09-06T16:58:34.005Z,68.7
2022-09-06T17:01:00.100Z,69.5
2022-09-06T17:03:26.200Z,71.3
2022-09-06T17:05:52.297Z,69.6
2022-09-06T17:08:18.390Z,70.9
2022-09-06T17:10:44.485Z,71.2
2022-09-06T17:13:10.567Z,72.3
2022-09-06T17:15:36.675Z,75.1
2022-09-06T17:18:02.776Z,76.4
2022-09-06T17:20:28.854Z,76.9
2022-09-06T17:22:53.984Z,77.9
2022-09-06T17:25:20.062Z,79.3
2022-09-06T17:27:46.178Z,80.5
2022-09-06T17:30:12.265Z,79.3
2022-09-06T17:32:38.352Z,78.7
2022-09-06T17:35:04.475Z,77.9
2022-09-06T17:37:30.530Z,77.2
2022-09-06T17:39:56.646Z,78.1
2022-09-06T17:42:22.779Z,79.7
2022-09-06T17:44:48.839Z,80.5
2022-09-06T17:47:14.921Z,81.1
2022-09-06T17:49:41.014Z,82.3
2022-09-06T17:52:07.119Z,82.2
2022-09-06T17:54:32.222Z,82.7
2022-09-06T17:56:58.322Z,82.6
2022-09-06T17:59:24.407Z,83.9
2022-09-06T18:01:50.497Z,83.9
2022-09-06T18:04:16.612Z,84.5
2022-09-06T18:06:42.686Z,84.5
2022-09-06T18:09:08.789Z,85.5
2022-09-06T18:11:34.885Z,86.8
2022-09-06T18:14:00.973Z,87.5
2022-09-06T18:16:27.081Z,87.4
2022-09-06T18:18:53.169Z,87.3
2022-09-06T18:21:19.258Z,87.6
2022-09-06T18:23:45.409Z,88.4
2022-09-06T18:26:10.471Z,89
2022-09-06T18:28:36.572Z,89.1
2022-09-06T18:31:02.666Z,89.4
2022-09-06T18:33:28.755Z,89.8
2022-09-06T18:35:54.876Z,89.7
2022-09-06T18:38:20.993Z,90.1
2022-09-06T18:40:47.049Z,90.3
2022-09-06T18:43:13.163Z,90.4
2022-09-06T18:45:39.234Z,90.7
2022-09-06T18:48:05.326Z,90.5
2022-09-06T18:50:31.416Z,90.8
2022-09-06T18:52:57.520Z,90.9
2022-09-06T18:55:23.635Z,91.2
2022-09-06T18:57:48.725Z,91.4
2022-09-06T19:00:14.819Z,92
2022-09-06T19:02:40.922Z,91.7
2022-09-06T19:05:07.148Z,91.8
2022-09-06T19:07:33.130Z,92
2022-09-06T19:09:59.204Z,92
2022-09-06T19:12:25.302Z,92.2
2022-09-06T19:14:51.383Z,92.3
2022-09-06T19:17:17.486Z,92.5
2022-09-06T19:19:43.582Z,92.7
2022-09-06T19:22:09.677Z,93
2022-09-06T19:24:35.779Z,93.2
2022-09-06T19:27:01.870Z,93.3
2022-09-06T19:29:26.983Z,93.7
2022-09-06T19:31:53.070Z,94.5
2022-09-06T19:34:19.165Z,94.5
2022-09-06T19:36:45.277Z,95
2022-09-06T19:39:11.362Z,95.3
2022-09-06T19:41:37.505Z,95.8
2022-09-06T19:44:03.541Z,96.2
2022-09-06T19:46:29.657Z,96.3
2022-09-06T19:48:55.741Z,95.7
2022-09-06T19:51:21.829Z,96
2022-09-06T19:53:47.923Z,95.8
2022-09-06T19:56:14.029Z,96
2022-09-06T19:58:40.132Z,96.1
2022-09-06T20:01:05.257Z,96.1
2022-09-06T20:03:31.328Z,95.8
2022-09-06T20:05:57.419Z,95.9
2022-09-06T20:08:23.540Z,96.1
2022-09-06T20:10:49.607Z,96.2
2022-09-06T20:13:15.715Z,96.1
2022-09-06T20:15:41.800Z,96.2
2022-09-06T20:18:07.924Z,96.7
2022-09-06T20:20:34.010Z,96.5
2022-09-06T20:23:00.103Z,96.7
2022-09-06T20:25:26.191Z,96.9
2022-09-06T20:27:52.271Z,97
2022-09-06T20:30:18.391Z,97.3
2022-09-06T20:32:43.496Z,97.4
2022-09-06T20:35:09.596Z,97.7
2022-09-06T20:37:35.701Z,97.9
2022-09-06T20:40:01.778Z,98
2022-09-06T20:42:27.861Z,98.2
2022-09-06T20:44:53.992Z,98.4
2022-09-06T20:47:20.084Z,98.5
2022-09-06T20:49:46.151Z,98.5
2022-09-06T20:52:12.243Z,98.8
2022-09-06T20:54:38.341Z,99
2022-09-06T20:57:04.454Z,99.3
2022-09-06T20:59:30.539Z,99.4
2022-09-06T21:01:56.620Z,99.7
2022-09-06T21:04:21.747Z,100
2022-09-06T21:06:47.841Z,100
2022-09-06T21:09:13.915Z,100
2022-09-06T21:11:40.023Z,100
2022-09-06T21:14:06.113Z,100
2022-09-06T21:16:32.239Z,100
2022-09-06T21:18:58.314Z,100
2022-09-06T21:21:24.390Z,100
2022-09-06T21:23:50.492Z,100
2022-09-06T21:26:16.585Z,100
2022-09-06T21:28:42.694Z,100
2022-09-06T21:31:08.776Z,100
2022-09-06T21:33:34.876Z,100
2022-09-06T21:36:00.019Z,100
2022-09-06T21:38:26.089Z,100
2022-09-06T21:40:52.188Z,100
2022-09-06T21:43:18.273Z,100
2022-09-06T21:45:44.381Z,100
2022-09-06T21:48:10.501Z,100
2022-09-06T21:50:36.560Z,100
2022-09-06T21:53:02.645Z,100
2022-09-06T21:55:28.747Z,100
2022-09-06T21:57:54.846Z,100
2022-09-06T22:00:20.926Z,100
2022-09-06T22:02:47.039Z,100
2022-09-06T22:05:13.124Z,100
2022-09-06T22:07:38.275Z,100
2022-09-06T22:10:04.328Z,100
2022-09-06T22:12:30.418Z,100
2022-09-06T22:14:56.515Z,100
2022-09-06T22:19:48.707Z,100
2022-09-06T22:22:14.811Z,100
2022-09-06T22:24:40.902Z,100
2022-09-06T22:27:07.042Z,100
2022-09-06T22:29:33.078Z,100
2022-09-06T22:31:59.183Z,100
2022-09-06T22:34:25.279Z,100
2022-09-06T22:36:51.366Z,100
2022-09-06T22:39:16.486Z,100
2022-09-06T22:41:42.577Z,100
2022-09-06T22:44:08.685Z,100
2022-09-06T22:46:34.773Z,100
2022-09-06T22:49:00.864Z,100
2022-09-06T22:51:26.958Z,100
2022-09-06T22:53:53.061Z,100
2022-09-06T22:56:19.140Z,100
2022-09-06T22:58:45.243Z,100
2022-09-06T23:01:11.357Z,100
2022-09-06T23:03:37.465Z,100
2022-09-06T23:06:03.529Z,100
2022-09-06T23:08:29.621Z,100
2022-09-06T23:10:54.722Z,100
2022-09-06T23:13:20.819Z,100
2022-09-06T23:15:46.921Z,100
2022-09-06T23:18:13.011Z,100
2022-09-06T23:20:39.107Z,100
2022-09-06T23:23:05.207Z,100
2022-09-06T23:25:30.333Z,100
2022-09-06T23:27:56.407Z,100
2022-09-06T23:30:22.499Z,100
2022-09-06T23:32:48.612Z,100
2022-09-06T23:35:14.710Z,100
2022-09-06T23:37:40.804Z,100
2022-09-06T23:40:06.901Z,100
2022-09-06T23:42:32.989Z,100
2022-09-06T23:44:59.075Z,100
2022-09-06T23:47:25.181Z,100
2022-09-06T23:49:51.278Z,100
2022-09-06T23:52:17.360Z,100
2022-09-06T23:54:43.460Z,100
2022-09-06T23:57:08.565Z,100
2022-09-06T23:59:34.682Z,100
